Time;durP1;ratioP1;P1;durP2;ratioP2;P2;SDS_P1;SDS_P2;PMS_P1;PMS_P2;Temp;Humidity;BMP_temperature;BMP_pressure;BME280_temperature;BME280_humidity;BME280_pressure;Samples;Min_cycle;Max_cycle;Signal;HPM_P1;HPM_P2
2022/03/14 00:00:07;;;;;;;25.35;14.50;;;;;;;;;;5008412;28;20116;-83
2022/03/14 00:02:32;;;;;;;25.00;14.45;;;;;;;;;;4991030;28;20517;-83
2022/03/14 00:04:58;;;;;;;26.52;14.98;;;;;;;;;;4993230;28;20071;-83
2022/03/14 00:07:23;;;;;;;23.83;14.43;;;;;;;;;;4990398;28;20179;-83
2022/03/14 00:09:48;;;;;;;24.90;14.38;;;;;;;;;;4987410;28;20034;-84
2022/03/14 00:12:17;;;;;;;26.02;14.07;;;;;;;;;;4988700;28;20040;-83
2022/03/14 00:14:42;;;;;;;25.23;14.35;;;;;;;;;;5009637;28;20069;-83
2022/03/14 00:17:09;;;;;;;26.65;14.70;;;;;;;;;;4991882;28;20057;-83
2022/03/14 00:19:34;;;;;;;23.37;13.93;;;;;;;;;;4992016;28;20117;-84
2022/03/14 00:22:00;;;;;;;23.98;14.15;;;;;;;;;;4987406;28;20113;-84
2022/03/14 00:24:25;;;;;;;24.27;14.32;;;;;;;;;;4983319;28;20055;-84
2022/03/14 00:26:54;;;;;;;25.88;14.55;;;;;;;;;;4990847;28;20497;-84
2022/03/14 00:29:20;;;;;;;24.60;14.10;;;;;;;;;;4989896;28;20594;-83
2022/03/14 00:31:46;;;;;;;25.30;14.40;;;;;;;;;;5008842;28;20038;-83
2022/03/14 00:34:14;;;;;;;21.95;14.13;;;;;;;;;;4992967;28;20053;-83
2022/03/14 00:36:41;;;;;;;;;;;;;;;;;;5008360;28;20204;-83
2022/03/14 00:39:06;;;;;;;23.05;13.65;;;;;;;;;;4997351;28;19944;-82
2022/03/14 00:41:32;;;;;;;23.05;14.00;;;;;;;;;;4995345;28;20037;-84
2022/03/14 00:43:57;;;;;;;23.90;13.43;;;;;;;;;;4991566;28;20048;-83
2022/03/14 00:46:23;;;;;;;26.25;14.48;;;;;;;;;;4988106;28;20561;-84
2022/03/14 00:48:48;;;;;;;23.73;14.40;;;;;;;;;;4991364;28;20129;-83
2022/03/14 00:51:13;;;;;;;24.73;14.90;;;;;;;;;;4989572;28;20042;-83
2022/03/14 00:53:39;;;;;;;23.20;14.07;;;;;;;;;;5009258;28;20432;-84
2022/03/14 00:56:05;;;;;;;24.23;14.30;;;;;;;;;;4991644;28;20060;-84
2022/03/14 00:58:30;;;;;;;24.75;14.52;;;;;;;;;;4992249;28;20038;-82
2022/03/14 01:00:56;;;;;;;25.42;14.75;;;;;;;;;;4980980;28;20571;-83
2022/03/14 01:03:21;;;;;;;25.15;13.80;;;;;;;;;;4990175;28;20392;-82
2022/03/14 01:05:47;;;;;;;23.20;14.40;;;;;;;;;;4992342;28;20034;-82
2022/03/14 01:08:12;;;;;;;24.45;14.15;;;;;;;;;;4991370;28;20045;-82
2022/03/14 01:10:37;;;;;;;28.38;13.88;;;;;;;;;;5005045;28;20061;-83
2022/03/14 01:13:03;;;;;;;24.23;13.85;;;;;;;;;;4987887;28;20060;-83
2022/03/14 01:15:29;;;;;;;27.15;14.02;;;;;;;;;;4988265;28;20481;-84
2022/03/14 01:17:56;;;;;;;23.95;13.63;;;;;;;;;;4993672;28;20038;-84
2022/03/14 01:20:22;;;;;;;24.80;14.73;;;;;;;;;;5004674;28;20046;-83
2022/03/14 01:22:50;;;;;;;24.67;13.98;;;;;;;;;;4991047;28;20034;-82
2022/03/14 01:25:18;;;;;;;26.25;14.52;;;;;;;;;;4980658;28;20378;-83
2022/03/14 01:27:43;;;;;;;25.10;14.43;;;;;;;;;;4991778;28;20555;-83
2022/03/14 01:30:09;;;;;;;22.42;13.77;;;;;;;;;;5008872;28;20056;-83
2022/03/14 01:32:34;;;;;;;23.95;13.20;;;;;;;;;;4996740;28;20034;-83
2022/03/14 01:34:59;;;;;;;24.88;13.95;;;;;;;;;;4991715;28;20045;-82
2022/03/14 01:37:25;;;;;;;23.70;13.88;;;;;;;;;;5009088;28;20041;-82
2022/03/14 01:39:50;;;;;;;26.08;14.70;;;;;;;;;;4999362;28;20029;-84
2022/03/14 01:42:17;;;;;;;24.52;14.40;;;;;;;;;;4994363;28;20045;-82
2022/03/14 01:44:43;;;;;;;24.57;14.10;;;;;;;;;;5010888;28;20034;-82
2022/03/14 01:47:09;;;;;;;23.42;13.55;;;;;;;;;;4994615;28;20044;-82
2022/03/14 01:49:34;;;;;;;25.50;13.57;;;;;;;;;;4996482;28;20493;-81
2022/03/14 01:52:05;;;;;;;24.23;14.18;;;;;;;;;;5005016;28;20041;-82
2022/03/14 01:54:30;;;;;;;27.08;13.73;;;;;;;;;;5011397;28;20060;-83
2022/03/14 01:56:57;;;;;;;24.15;13.38;;;;;;;;;;4984111;28;20113;-82
2022/03/14 01:59:23;;;;;;;23.58;13.75;;;;;;;;;;4995511;28;20038;-84
2022/03/14 02:01:48;;;;;;;25.60;14.43;;;;;;;;;;4994918;28;20029;-83
2022/03/14 02:04:17;;;;;;;24.92;13.82;;;;;;;;;;4988354;28;20041;-83
2022/03/14 02:06:44;;;;;;;23.23;13.27;;;;;;;;;;5007217;28;20029;-83
2022/03/14 02:09:09;;;;;;;24.70;13.52;;;;;;;;;;5002312;28;20270;-85
2022/03/14 02:11:35;;;;;;;23.25;14.00;;;;;;;;;;4994207;28;20030;-83
2022/03/14 02:14:00;;;;;;;24.02;13.45;;;;;;;;;;4992723;28;20049;-83
2022/03/14 02:16:25;;;;;;;24.52;13.50;;;;;;;;;;4988064;28;20112;-84
2022/03/14 02:18:51;;;;;;;24.05;13.82;;;;;;;;;;5006034;28;20052;-84
2022/03/14 02:21:16;;;;;;;23.40;13.65;;;;;;;;;;4989872;28;20033;-83
2022/03/14 02:23:42;;;;;;;26.60;13.88;;;;;;;;;;4991372;28;20060;-83
2022/03/14 02:26:10;;;;;;;23.63;12.85;;;;;;;;;;4992687;28;20494;-83
2022/03/14 02:28:36;;;;;;;25.90;13.82;;;;;;;;;;4994666;28;20037;-83
2022/03/14 02:31:03;;;;;;;25.50;13.88;;;;;;;;;;4992204;28;20404;-83
2022/03/14 02:33:29;;;;;;;24.90;14.23;;;;;;;;;;4994335;28;20440;-83
2022/03/14 02:35:54;;;;;;;25.17;13.50;;;;;;;;;;4991332;28;20040;-83
2022/03/14 02:38:19;;;;;;;24.48;13.60;;;;;;;;;;4994003;28;20481;-83
2022/03/14 02:40:47;;;;;;;23.67;13.43;;;;;;;;;;4997120;28;20076;-83
2022/03/14 02:43:16;;;;;;;25.25;13.65;;;;;;;;;;4994327;28;20041;-83
2022/03/14 02:45:43;;;;;;;23.67;13.55;;;;;;;;;;4993870;28;20034;-83
2022/03/14 02:48:09;;;;;;;23.67;13.15;;;;;;;;;;4995092;28;20033;-83
2022/03/14 02:50:37;;;;;;;22.45;12.98;;;;;;;;;;4992053;28;20507;-82
2022/03/14 02:53:02;;;;;;;26.80;14.05;;;;;;;;;;4992487;28;20038;-83
2022/03/14 02:55:28;;;;;;;23.67;13.52;;;;;;;;;;4988105;28;20045;-83
2022/03/14 02:57:53;;;;;;;25.67;13.70;;;;;;;;;;4994284;28;20026;-83
2022/03/14 03:00:19;;;;;;;23.75;13.60;;;;;;;;;;4986818;28;20033;-84
2022/03/14 03:02:44;;;;;;;25.15;14.23;;;;;;;;;;5009464;28;20129;-83
2022/03/14 03:05:10;;;;;;;25.25;14.10;;;;;;;;;;5007731;28;20034;-83
2022/03/14 03:07:36;;;;;;;24.83;14.10;;;;;;;;;;5010036;28;20056;-83
2022/03/14 03:10:03;;;;;;;25.10;14.27;;;;;;;;;;4993383;28;20442;-82
2022/03/14 03:12:28;;;;;;;25.65;14.63;;;;;;;;;;4992702;28;20072;-83
2022/03/14 03:14:54;;;;;;;26.27;14.50;;;;;;;;;;4998176;28;20499;-82
2022/03/14 03:17:20;;;;;;;26.17;14.32;;;;;;;;;;4991208;28;20045;-82
2022/03/14 03:19:46;;;;;;;27.00;15.60;;;;;;;;;;5011580;28;20053;-84
2022/03/14 03:22:14;;;;;;;25.90;15.13;;;;;;;;;;4991038;28;20042;-84
2022/03/14 03:24:39;;;;;;;23.30;13.02;;;;;;;;;;4994728;28;20397;-83
2022/03/14 03:27:04;;;;;;;25.92;14.52;;;;;;;;;;5008789;28;20034;-83
2022/03/14 03:29:30;;;;;;;25.55;14.40;;;;;;;;;;5011401;28;20570;-83
2022/03/14 03:31:55;;;;;;;26.42;14.57;;;;;;;;;;4991169;28;20136;-83
2022/03/14 03:34:20;;;;;;;24.83;14.00;;;;;;;;;;4993587;28;20025;-83
2022/03/14 03:36:46;;;;;;;28.23;14.73;;;;;;;;;;4993045;28;20497;-83
2022/03/14 03:39:14;;;;;;;24.98;13.95;;;;;;;;;;4989421;28;20036;-84
2022/03/14 03:41:43;;;;;;;24.98;13.80;;;;;;;;;;4991346;28;20036;-83
2022/03/14 03:44:08;;;;;;;25.02;14.07;;;;;;;;;;4993979;28;20585;-83
2022/03/14 03:46:33;;;;;;;26.88;14.45;;;;;;;;;;5006963;28;20117;-83
2022/03/14 03:48:59;;;;;;;25.00;13.98;;;;;;;;;;4990895;28;20038;-83
2022/03/14 03:51:24;;;;;;;24.05;13.40;;;;;;;;;;4994373;28;20033;-83
2022/03/14 03:53:49;;;;;;;26.33;13.85;;;;;;;;;;4992906;28;20038;-84
2022/03/14 03:56:15;;;;;;;25.65;14.57;;;;;;;;;;4992201;28;20560;-83
2022/03/14 03:58:41;;;;;;;21.52;13.15;;;;;;;;;;4993997;28;20042;-82
2022/03/14 04:01:07;;;;;;;25.92;13.82;;;;;;;;;;4994394;28;20049;-84
2022/03/14 04:03:35;;;;;;;24.00;13.20;;;;;;;;;;4990552;28;20805;-83
2022/03/14 04:06:01;;;;;;;27.23;14.10;;;;;;;;;;4981125;28;20069;-85
2022/03/14 04:08:30;;;;;;;23.25;13.23;;;;;;;;;;4992168;28;20492;-90
2022/03/14 04:10:58;;;;;;;24.52;13.43;;;;;;;;;;4991616;28;20046;-87
2022/03/14 04:13:25;;;;;;;;;;;;;;;;;;4993659;28;20049;-88
2022/03/14 04:15:51;;;;;;;23.77;13.73;;;;;;;;;;4991637;28;20353;-86
2022/03/14 04:18:18;;;;;;;22.35;13.18;;;;;;;;;;4997552;28;20037;-87
2022/03/14 04:20:45;;;;;;;27.38;14.43;;;;;;;;;;4992335;28;20124;-87
2022/03/14 04:23:10;;;;;;;25.80;14.03;;;;;;;;;;4994045;28;20056;-85
2022/03/14 04:25:36;;;;;;;23.20;13.82;;;;;;;;;;4992009;28;20030;-86
2022/03/14 04:28:01;;;;;;;25.92;14.45;;;;;;;;;;5008229;28;20041;-87
2022/03/14 04:30:27;;;;;;;25.02;13.55;;;;;;;;;;4991299;28;20061;-86
2022/03/14 04:32:52;;;;;;;25.00;13.50;;;;;;;;;;4981900;28;20053;-86
2022/03/14 04:35:20;;;;;;;23.50;13.25;;;;;;;;;;4991267;28;20083;-85
2022/03/14 04:37:48;;;;;;;25.83;13.60;;;;;;;;;;4992989;28;20441;-84
2022/03/14 04:40:14;;;;;;;24.58;13.05;;;;;;;;;;4988729;28;20088;-84
2022/03/14 04:42:40;;;;;;;24.50;14.02;;;;;;;;;;5008975;28;20576;-84
2022/03/14 04:45:09;;;;;;;25.23;13.48;;;;;;;;;;4992425;28;20041;-83
2022/03/14 04:47:34;;;;;;;26.75;14.05;;;;;;;;;;4991709;28;20568;-82
2022/03/14 04:50:00;;;;;;;24.70;13.82;;;;;;;;;;4988265;28;20045;-82
2022/03/14 04:52:29;;;;;;;27.60;15.70;;;;;;;;;;4990766;28;20149;-83
2022/03/14 04:54:56;;;;;;;26.20;13.70;;;;;;;;;;4997359;28;20032;-82
2022/03/14 04:57:21;;;;;;;25.23;14.27;;;;;;;;;;4990597;28;20038;-82
2022/03/14 04:59:46;;;;;;;27.38;14.77;;;;;;;;;;4992036;28;20554;-82
2022/03/14 05:02:11;;;;;;;27.77;14.23;;;;;;;;;;4989935;28;20041;-82
2022/03/14 05:04:38;;;;;;;24.40;13.88;;;;;;;;;;4989323;28;20073;-82
2022/03/14 05:07:04;;;;;;;27.35;14.38;;;;;;;;;;5007744;28;20144;-82
2022/03/14 05:09:29;;;;;;;29.00;14.55;;;;;;;;;;4993002;28;20688;-82
2022/03/14 05:11:54;;;;;;;24.35;14.40;;;;;;;;;;5009681;28;20405;-81
2022/03/14 05:14:20;;;;;;;25.55;13.45;;;;;;;;;;4994854;28;20515;-82
2022/03/14 05:16:47;;;;;;;30.08;15.18;;;;;;;;;;4994246;28;20038;-82
2022/03/14 05:19:13;;;;;;;24.73;14.07;;;;;;;;;;4995734;28;20491;-81
2022/03/14 05:21:38;;;;;;;25.15;15.10;;;;;;;;;;5014684;28;20120;-82
2022/03/14 05:24:08;;;;;;;27.33;14.60;;;;;;;;;;4993477;28;20044;-82
2022/03/14 05:26:34;;;;;;;26.58;15.05;;;;;;;;;;4990171;28;20068;-81
2022/03/14 05:28:59;;;;;;;28.23;15.25;;;;;;;;;;5008770;28;20072;-82
2022/03/14 05:31:24;;;;;;;28.45;14.93;;;;;;;;;;4993958;28;20037;-82
2022/03/14 05:33:50;;;;;;;28.80;14.90;;;;;;;;;;4991421;28;20033;-83
2022/03/14 05:36:15;;;;;;;28.23;14.98;;;;;;;;;;5007131;28;20072;-81
2022/03/14 05:38:44;;;;;;;25.60;14.13;;;;;;;;;;5009451;28;20034;-81
2022/03/14 05:41:09;;;;;;;28.80;14.80;;;;;;;;;;5003293;28;20042;-82
2022/03/14 05:43:37;;;;;;;26.30;15.30;;;;;;;;;;4992982;28;20414;-82
2022/03/14 05:46:06;;;;;;;;;;;;;;;;;;4991431;28;20504;-81
2022/03/14 05:48:32;;;;;;;25.65;15.10;;;;;;;;;;4995160;28;20344;-84
2022/03/14 05:50:58;;;;;;;29.27;15.73;;;;;;;;;;4991873;28;20042;-83
2022/03/14 05:53:26;;;;;;;26.35;14.95;;;;;;;;;;5011427;28;20041;-84
2022/03/14 05:55:52;;;;;;;27.13;14.52;;;;;;;;;;4994115;28;20033;-83
2022/03/14 05:58:17;;;;;;;29.67;15.48;;;;;;;;;;4983005;28;20511;-84
2022/03/14 06:00:42;;;;;;;27.77;15.13;;;;;;;;;;5008960;28;20076;-84
2022/03/14 06:03:09;;;;;;;27.10;14.82;;;;;;;;;;5007132;28;20044;-84
2022/03/14 06:05:34;;;;;;;31.95;15.30;;;;;;;;;;4996184;28;20083;-83
2022/03/14 06:07:59;;;;;;;27.55;14.98;;;;;;;;;;5008181;28;20033;-83
2022/03/14 06:10:25;;;;;;;27.90;15.13;;;;;;;;;;5009907;28;20073;-83
2022/03/14 06:12:50;;;;;;;25.30;14.02;;;;;;;;;;5010577;28;20050;-83
2022/03/14 06:15:16;;;;;;;27.88;15.25;;;;;;;;;;4993796;28;20037;-83
2022/03/14 06:17:42;;;;;;;51.53;25.05;;;;;;;;;;5010548;28;20030;-83
2022/03/14 06:20:13;;;;;;;26.48;14.32;;;;;;;;;;4995195;28;20506;-83
2022/03/14 06:22:43;;;;;;;28.30;15.27;;;;;;;;;;5007448;28;20105;-82
2022/03/14 06:25:09;;;;;;;29.25;14.82;;;;;;;;;;4992187;28;20228;-82
2022/03/14 06:27:35;;;;;;;26.65;14.32;;;;;;;;;;4992364;28;20498;-82
2022/03/14 06:30:00;;;;;;;29.33;15.07;;;;;;;;;;5009061;28;20489;-85
2022/03/14 06:32:33;;;;;;;27.45;15.57;;;;;;;;;;4993208;28;20092;-83
2022/03/14 06:34:58;;;;;;;31.98;16.30;;;;;;;;;;4992734;28;20057;-81
2022/03/14 06:37:25;;;;;;;28.10;15.63;;;;;;;;;;4983742;28;20062;-80
2022/03/14 06:39:50;;;;;;;28.13;14.20;;;;;;;;;;5009479;28;20052;-80
2022/03/14 06:42:20;;;;;;;26.58;14.05;;;;;;;;;;5010291;28;20029;-82
2022/03/14 06:44:46;;;;;;;27.02;15.10;;;;;;;;;;4995803;28;20497;-81
2022/03/14 06:47:16;;;;;;;31.02;15.27;;;;;;;;;;4992235;28;20045;-82
2022/03/14 06:49:44;;;;;;;29.70;15.63;;;;;;;;;;4994487;28;20046;-84
2022/03/14 06:52:09;;;;;;;;;;;;;;;;;;4997401;28;20760;-85
2022/03/14 06:54:35;;;;;;;26.38;14.63;;;;;;;;;;4999029;28;19914;-82
2022/03/14 06:57:00;;;;;;;29.10;14.88;;;;;;;;;;4993407;28;20129;-83
2022/03/14 06:59:26;;;;;;;24.30;13.75;;;;;;;;;;4997833;28;20026;-84
2022/03/14 07:01:51;;;;;;;31.77;15.02;;;;;;;;;;4994437;28;20030;-83
2022/03/14 07:04:17;;;;;;;28.17;15.55;;;;;;;;;;4994968;28;20042;-82
2022/03/14 07:06:42;;;;;;;26.73;14.00;;;;;;;;;;4995060;28;20923;-83
2022/03/14 07:09:09;;;;;;;27.20;14.60;;;;;;;;;;5005974;28;20047;-84
2022/03/14 07:11:34;;;;;;;29.38;14.60;;;;;;;;;;4987761;28;20041;-83
2022/03/14 07:14:00;;;;;;;27.77;14.45;;;;;;;;;;5010025;28;20038;-82
2022/03/14 07:16:25;;;;;;;28.80;14.02;;;;;;;;;;4991573;28;20034;-82
2022/03/14 07:18:51;;;;;;;27.75;14.80;;;;;;;;;;4995392;28;20037;-84
2022/03/14 07:21:17;;;;;;;25.20;14.45;;;;;;;;;;4992362;28;20121;-84
2022/03/14 07:23:43;;;;;;;27.13;14.40;;;;;;;;;;5012086;28;20042;-84
2022/03/14 07:26:08;;;;;;;24.60;14.10;;;;;;;;;;4982450;28;20042;-83
2022/03/14 07:28:34;;;;;;;24.60;14.00;;;;;;;;;;4995413;28;20037;-83
2022/03/14 07:30:59;;;;;;;25.27;14.23;;;;;;;;;;4990786;28;20046;-83
2022/03/14 07:33:25;;;;;;;27.55;14.57;;;;;;;;;;4993453;28;20034;-82
2022/03/14 07:35:51;;;;;;;27.67;14.85;;;;;;;;;;4989890;28;20038;-83
2022/03/14 07:38:16;;;;;;;27.38;14.10;;;;;;;;;;4991035;28;20504;-85
2022/03/14 07:40:42;;;;;;;22.60;12.93;;;;;;;;;;4992133;28;20073;-83
2022/03/14 07:43:08;;;;;;;23.17;13.80;;;;;;;;;;5009531;28;20036;-85
2022/03/14 07:45:34;;;;;;;23.08;13.45;;;;;;;;;;4994438;28;20497;-83
2022/03/14 07:48:00;;;;;;;20.58;12.75;;;;;;;;;;4993551;28;20045;-82
2022/03/14 07:50:26;;;;;;;21.63;11.57;;;;;;;;;;4991956;28;20047;-82
2022/03/14 07:52:51;;;;;;;20.88;12.13;;;;;;;;;;4991336;28;20045;-82
2022/03/14 07:55:17;;;;;;;22.98;12.52;;;;;;;;;;4994236;28;20033;-83
2022/03/14 07:57:42;;;;;;;21.80;11.80;;;;;;;;;;4993516;28;20999;-84
2022/03/14 08:00:13;;;;;;;21.33;11.95;;;;;;;;;;4991038;28;20152;-84
2022/03/14 08:02:39;;;;;;;21.83;12.07;;;;;;;;;;4989294;28;20037;-83
2022/03/14 08:05:08;;;;;;;20.20;11.95;;;;;;;;;;4990289;28;20044;-83
2022/03/14 08:07:34;;;;;;;18.58;11.82;;;;;;;;;;4991888;28;20062;-83
2022/03/14 08:10:04;;;;;;;19.42;11.68;;;;;;;;;;4991496;28;20042;-83
2022/03/14 08:12:31;;;;;;;19.35;11.80;;;;;;;;;;4991051;28;20037;-84
2022/03/14 08:14:57;;;;;;;20.45;12.00;;;;;;;;;;4992903;28;20034;-84
2022/03/14 08:17:22;;;;;;;19.63;11.57;;;;;;;;;;4991055;28;20057;-84
2022/03/14 08:19:47;;;;;;;19.52;11.73;;;;;;;;;;5010117;28;20132;-84
2022/03/14 08:22:13;;;;;;;17.45;11.35;;;;;;;;;;4992313;28;20030;-84
2022/03/14 08:24:38;;;;;;;18.40;11.30;;;;;;;;;;4993448;28;20034;-84
2022/03/14 08:27:04;;;;;;;20.48;10.82;;;;;;;;;;4992536;28;20037;-84
2022/03/14 08:29:30;;;;;;;18.60;11.30;;;;;;;;;;4992337;28;20041;-83
2022/03/14 08:32:01;;;;;;;18.05;10.75;;;;;;;;;;5008601;28;20030;-84
2022/03/14 08:34:27;;;;;;;17.95;10.73;;;;;;;;;;4994460;28;20040;-84
2022/03/14 08:36:52;;;;;;;17.45;10.30;;;;;;;;;;4985653;28;20034;-81
2022/03/14 08:39:17;;;;;;;15.32;10.20;;;;;;;;;;4998558;28;20065;-82
2022/03/14 08:41:43;;;;;;;16.20;10.70;;;;;;;;;;5009985;28;20038;-82
2022/03/14 08:44:09;;;;;;;16.40;10.00;;;;;;;;;;4997910;28;20500;-83
2022/03/14 08:46:38;;;;;;;16.48;10.13;;;;;;;;;;5000381;28;20038;-82
2022/03/14 08:49:03;;;;;;;17.02;10.52;;;;;;;;;;4997837;28;20038;-82
2022/03/14 08:51:29;;;;;;;16.10;10.65;;;;;;;;;;4999240;28;20045;-82
2022/03/14 08:53:54;;;;;;;16.10;10.40;;;;;;;;;;4999035;28;20029;-82
2022/03/14 08:56:20;;;;;;;17.10;9.93;;;;;;;;;;4994613;28;20038;-82
2022/03/14 08:58:48;;;;;;;14.70;9.50;;;;;;;;;;4971683;28;20034;-81
2022/03/14 09:01:15;;;;;;;13.45;9.23;;;;;;;;;;4987632;28;20037;-82
2022/03/14 09:03:42;;;;;;;14.75;9.50;;;;;;;;;;5000164;28;20096;-81
2022/03/14 09:06:09;;;;;;;13.83;9.33;;;;;;;;;;4998300;28;20094;-82
2022/03/14 09:08:34;;;;;;;11.73;8.65;;;;;;;;;;5001173;28;20073;-82
2022/03/14 09:11:01;;;;;;;12.75;8.90;;;;;;;;;;4999826;28;20072;-82
2022/03/14 09:13:27;;;;;;;12.18;8.63;;;;;;;;;;4998892;28;20041;-82
2022/03/14 09:15:55;;;;;;;12.88;8.52;;;;;;;;;;4991554;28;20034;-81
2022/03/14 09:18:21;;;;;;;13.10;8.82;;;;;;;;;;5004193;28;20068;-82
2022/03/14 09:20:52;;;;;;;15.10;8.90;;;;;;;;;;4996095;28;20085;-82
2022/03/14 09:23:19;;;;;;;12.65;8.75;;;;;;;;;;4973260;28;20038;-82
2022/03/14 09:25:45;;;;;;;11.18;8.55;;;;;;;;;;5002398;28;20042;-82
2022/03/14 09:28:11;;;;;;;13.30;8.75;;;;;;;;;;4998776;28;20104;-82
2022/03/14 09:30:36;;;;;;;13.88;9.10;;;;;;;;;;4991202;28;20425;-82
2022/03/14 09:33:01;;;;;;;13.70;8.75;;;;;;;;;;4993938;28;20029;-82
2022/03/14 09:35:27;;;;;;;12.02;8.43;;;;;;;;;;4997330;28;20165;-82
2022/03/14 09:37:52;;;;;;;13.48;9.18;;;;;;;;;;4997404;28;20493;-82
2022/03/14 09:40:20;;;;;;;15.02;9.30;;;;;;;;;;4997897;28;20117;-83
2022/03/14 09:42:48;;;;;;;13.65;9.38;;;;;;;;;;5014566;28;20044;-82
2022/03/14 09:45:14;;;;;;;13.20;9.43;;;;;;;;;;4986070;28;20045;-82
2022/03/14 09:47:47;;;;;;;11.73;9.00;;;;;;;;;;4990826;28;20033;-82
2022/03/14 09:50:15;;;;;;;13.52;9.05;;;;;;;;;;4997159;28;20136;-83
2022/03/14 09:52:42;;;;;;;13.55;9.13;;;;;;;;;;4985491;28;20523;-83
2022/03/14 09:55:10;;;;;;;13.50;9.20;;;;;;;;;;4995839;28;20109;-82
2022/03/14 09:57:39;;;;;;;13.90;9.93;;;;;;;;;;4998377;28;20042;-81
2022/03/14 10:00:06;;;;;;;15.25;9.48;;;;;;;;;;5005081;28;20785;-82
2022/03/14 10:02:36;;;;;;;14.57;9.37;;;;;;;;;;4996289;28;20038;-82
2022/03/14 10:05:06;;;;;;;12.20;9.00;;;;;;;;;;4986654;28;20375;-82
2022/03/14 10:07:33;;;;;;;17.98;9.88;;;;;;;;;;5016698;28;20137;-82
2022/03/14 10:09:58;;;;;;;14.18;9.48;;;;;;;;;;5015766;28;20520;-81
2022/03/14 10:12:23;;;;;;;14.00;9.02;;;;;;;;;;4995466;28;20172;-80
2022/03/14 10:14:50;;;;;;;12.77;9.15;;;;;;;;;;5000389;28;20033;-81
2022/03/14 10:17:15;;;;;;;15.82;9.90;;;;;;;;;;4996397;28;20038;-82
2022/03/14 10:19:41;;;;;;;15.65;9.43;;;;;;;;;;5013469;28;20049;-84
2022/03/14 10:22:18;;;;;;;13.68;8.60;;;;;;;;;;4999661;28;20149;-83
2022/03/14 10:24:44;;;;;;;17.45;9.10;;;;;;;;;;4997584;28;20072;-82
2022/03/14 10:27:11;;;;;;;15.10;9.23;;;;;;;;;;4983312;28;20535;-81
2022/03/14 10:29:37;;;;;;;14.45;9.30;;;;;;;;;;4998137;28;20041;-82
2022/03/14 10:32:18;;;;;;;15.75;8.98;;;;;;;;;;4995725;28;20401;-82
2022/03/14 10:34:51;;;;;;;14.73;9.02;;;;;;;;;;5016562;28;20030;-82
2022/03/14 10:37:17;;;;;;;13.63;8.50;;;;;;;;;;4996918;28;20034;-82
2022/03/14 10:39:42;;;;;;;13.38;8.70;;;;;;;;;;4996259;28;20096;-82
2022/03/14 10:42:12;;;;;;;12.35;8.25;;;;;;;;;;4996069;28;20062;-82
2022/03/14 10:44:40;;;;;;;12.65;8.10;;;;;;;;;;4999978;28;20505;-82
2022/03/14 10:47:08;;;;;;;11.88;7.43;;;;;;;;;;5001229;28;20037;-82
2022/03/14 10:49:35;;;;;;;10.57;7.13;;;;;;;;;;4997250;28;20040;-82
2022/03/14 10:52:06;;;;;;;10.70;6.70;;;;;;;;;;4995402;28;20601;-82
2022/03/14 10:54:35;;;;;;;12.52;7.25;;;;;;;;;;4997961;28;20493;-83
2022/03/14 10:57:07;;;;;;;13.98;7.35;;;;;;;;;;4997313;28;20045;-83
2022/03/14 10:59:34;;;;;;;9.98;7.07;;;;;;;;;;4997240;28;20371;-84
2022/03/14 11:02:00;;;;;;;;;;;;;;;;;;4986942;28;20030;-83
2022/03/14 11:04:26;;;;;;;11.10;7.28;;;;;;;;;;4996249;28;19929;-83
2022/03/14 11:07:01;;;;;;;9.75;7.03;;;;;;;;;;4988521;28;20119;-82
2022/03/14 11:09:44;;;;;;;12.82;7.50;;;;;;;;;;4999880;28;20044;-82
2022/03/14 11:12:15;;;;;;;11.10;7.50;;;;;;;;;;4997778;28;20124;-82
2022/03/14 11:14:41;;;;;;;9.82;7.47;;;;;;;;;;4994669;28;20120;-83
2022/03/14 11:17:29;;;;;;;9.82;7.10;;;;;;;;;;5004570;28;20128;-84
2022/03/14 11:19:57;;;;;;;12.02;7.40;;;;;;;;;;4978469;28;20491;-84
2022/03/14 11:22:26;;;;;;;11.98;7.45;;;;;;;;;;5005096;28;20713;-84
2022/03/14 11:24:53;;;;;;;9.05;6.70;;;;;;;;;;4994652;28;20056;-82
2022/03/14 11:27:23;;;;;;;;;;;;;;;;;;4993872;28;20037;-83
2022/03/14 11:29:50;;;;;;;10.95;7.25;;;;;;;;;;4994947;28;20012;-82
2022/03/14 11:32:16;;;;;;;13.13;7.60;;;;;;;;;;4993836;28;20033;-83
2022/03/14 11:34:43;;;;;;;9.20;6.70;;;;;;;;;;5009786;28;20060;-82
2022/03/14 11:37:10;;;;;;;9.80;7.10;;;;;;;;;;4992297;28;20042;-82
2022/03/14 11:39:36;;;;;;;10.15;7.93;;;;;;;;;;4987246;28;20601;-84
2022/03/14 11:42:02;;;;;;;8.73;6.85;;;;;;;;;;5008471;28;20034;-84
2022/03/14 11:44:27;;;;;;;10.38;7.15;;;;;;;;;;4992532;28;20508;-82
2022/03/14 11:46:54;;;;;;;11.98;7.20;;;;;;;;;;5010181;28;20029;-83
2022/03/14 11:49:19;;;;;;;11.65;7.10;;;;;;;;;;4994801;28;20034;-84
2022/03/14 11:51:45;;;;;;;9.93;7.20;;;;;;;;;;5010465;28;20034;-84
2022/03/14 11:54:12;;;;;;;10.15;7.20;;;;;;;;;;5008045;28;20057;-84
2022/03/14 11:56:39;;;;;;;9.30;7.22;;;;;;;;;;4995247;28;20693;-83
2022/03/14 11:59:09;;;;;;;10.55;7.28;;;;;;;;;;4984311;28;20141;-83
2022/03/14 12:01:46;;;;;;;10.68;7.75;;;;;;;;;;4981862;28;20025;-82
2022/03/14 12:04:27;;;;;;;13.40;8.32;;;;;;;;;;5008710;28;20056;-83
2022/03/14 12:06:53;;;;;;;11.07;8.38;;;;;;;;;;4988286;28;20044;-82
2022/03/14 12:09:31;;;;;;;11.25;8.40;;;;;;;;;;5012559;28;20045;-83
2022/03/14 12:12:19;;;;;;;11.18;8.20;;;;;;;;;;5006400;28;20032;-82
2022/03/14 12:14:47;;;;;;;13.50;8.68;;;;;;;;;;4995153;28;20121;-83
2022/03/14 12:17:13;;;;;;;12.38;8.77;;;;;;;;;;5009290;28;20156;-82
2022/03/14 12:19:48;;;;;;;11.83;8.77;;;;;;;;;;5012357;28;20720;-84
2022/03/14 12:22:32;;;;;;;11.45;8.48;;;;;;;;;;5009715;28;20269;-84
2022/03/14 12:25:01;;;;;;;12.45;8.52;;;;;;;;;;4995636;28;20491;-83
2022/03/14 12:27:33;;;;;;;11.70;8.52;;;;;;;;;;4991494;28;20509;-82
2022/03/14 12:29:59;;;;;;;12.65;8.43;;;;;;;;;;5009451;28;20038;-83
2022/03/14 12:32:39;;;;;;;14.25;8.82;;;;;;;;;;4994181;28;20819;-82
2022/03/14 12:35:06;;;;;;;12.18;8.82;;;;;;;;;;5010839;28;20034;-82
2022/03/14 12:37:50;;;;;;;12.47;9.10;;;;;;;;;;4994488;28;20037;-83
2022/03/14 12:40:21;;;;;;;13.65;9.52;;;;;;;;;;4993100;28;20038;-83
2022/03/14 12:42:51;;;;;;;12.95;8.15;;;;;;;;;;5010319;28;20057;-83
2022/03/14 12:45:29;;;;;;;11.18;8.50;;;;;;;;;;4991970;28;20121;-83
2022/03/14 12:48:05;;;;;;;13.45;8.77;;;;;;;;;;4991250;28;20044;-83
2022/03/14 12:50:43;;;;;;;14.50;9.07;;;;;;;;;;4992820;28;20034;-82
2022/03/14 12:53:12;;;;;;;15.18;8.80;;;;;;;;;;5007776;28;20072;-82
2022/03/14 12:55:49;;;;;;;11.63;8.38;;;;;;;;;;5007992;28;20038;-83
2022/03/14 12:58:19;;;;;;;12.05;8.93;;;;;;;;;;4994161;28;20037;-82
2022/03/14 13:00:48;;;;;;;15.05;8.55;;;;;;;;;;4986651;28;20038;-83
2022/03/14 13:03:20;;;;;;;12.65;8.75;;;;;;;;;;5006728;28;20485;-84
2022/03/14 13:05:45;;;;;;;13.55;8.85;;;;;;;;;;4994684;28;20030;-84
2022/03/14 13:08:11;;;;;;;13.45;8.55;;;;;;;;;;4989652;28;20393;-83
2022/03/14 13:10:38;;;;;;;11.93;8.27;;;;;;;;;;4993870;28;20042;-84
2022/03/14 13:13:03;;;;;;;11.57;8.57;;;;;;;;;;4990227;28;20046;-82
2022/03/14 13:15:28;;;;;;;14.75;9.30;;;;;;;;;;4991814;28;20033;-83
2022/03/14 13:17:54;;;;;;;11.90;8.57;;;;;;;;;;4991010;28;20042;-83
2022/03/14 13:20:27;;;;;;;13.43;8.65;;;;;;;;;;4991956;28;20046;-83
2022/03/14 13:22:53;;;;;;;12.10;8.73;;;;;;;;;;4993390;28;20034;-83
2022/03/14 13:25:38;;;;;;;14.43;8.80;;;;;;;;;;4995525;28;20041;-85
2022/03/14 13:28:04;;;;;;;13.23;9.00;;;;;;;;;;4995905;28;20579;-83
2022/03/14 13:30:45;;;;;;;13.32;8.80;;;;;;;;;;4993687;28;20026;-83
2022/03/14 13:33:23;;;;;;;12.85;9.15;;;;;;;;;;4998204;28;20053;-83
2022/03/14 13:35:49;;;;;;;13.45;9.00;;;;;;;;;;4996298;28;20048;-83
2022/03/14 13:38:36;;;;;;;12.43;9.15;;;;;;;;;;4998451;28;20041;-85
2022/03/14 13:41:04;;;;;;;17.02;9.60;;;;;;;;;;4992947;28;20046;-83
2022/03/14 13:43:30;;;;;;;12.27;8.75;;;;;;;;;;4993638;28;20061;-86
2022/03/14 13:46:37;;;;;;;12.48;8.93;;;;;;;;;;4994285;28;20088;-83
2022/03/14 13:49:17;;;;;;;12.18;8.90;;;;;;;;;;4883703;29;20063;-86
2022/03/14 13:52:03;;;;;;;13.30;9.02;;;;;;;;;;4903737;29;20032;-84
2022/03/14 13:54:37;;;;;;;15.43;9.18;;;;;;;;;;4905482;29;20051;-83
2022/03/14 13:57:08;;;;;;;13.10;9.35;;;;;;;;;;4900284;29;20926;-83
2022/03/14 13:59:35;;;;;;;12.20;8.77;;;;;;;;;;4877671;29;20040;-83
2022/03/14 14:02:09;;;;;;;12.60;9.27;;;;;;;;;;4891185;29;20681;-84
2022/03/14 14:04:43;;;;;;;11.88;9.52;;;;;;;;;;4893759;29;20036;-84
2022/03/14 14:07:16;;;;;;;13.27;9.60;;;;;;;;;;4916124;29;20147;-84
2022/03/14 14:09:43;;;;;;;12.63;9.13;;;;;;;;;;4901973;29;20594;-87
2022/03/14 14:12:22;;;;;;;13.07;9.50;;;;;;;;;;4898835;29;20817;-84
2022/03/14 14:14:50;;;;;;;13.27;9.98;;;;;;;;;;4910212;29;20048;-84
2022/03/14 14:17:25;;;;;;;;;;;;;;;;;;4893837;29;20110;-83
2022/03/14 14:20:06;;;;;;;14.30;9.80;;;;;;;;;;4955895;28;20407;-85
2022/03/14 14:22:36;;;;;;;15.35;9.23;;;;;;;;;;5010516;28;20045;-85
2022/03/14 14:25:05;;;;;;;13.30;9.70;;;;;;;;;;4994558;28;20466;-84